Aktualne dane pomiarowe

Uwaga, wersja testowa! Automatyczne pobieranie danych za pomocą narzędzi lub skryptów to umożliwiających jest zabronione.

Dane meteo z obszaru Polski uzyskane na podstawie depesz SYNOP pobieranych co godzinę z NWS. Najedź myszką na symbol przedstawiony w tabeli, aby uzyskać informacje co do jego znaczenia. Prosimy pamiętać, że to testowa wersja strony, która jeszcze nie jest ukończona. Stworzono również jest krótki FAQ dotyczący korzystania z tej podstrony Anomalie temperatury w chwili obecnej odniesione są do okresu referencyjnego 1951-2016. Okres ten będzie później zmieniony na 1981-2010. Kliknij ikonę aby pobrać plik CSV. Kliknij ikonę aby wygenerować mapę synoptyczną dla danego terminu.

Wybierz Datę:    

        

Szczecinek (12215)

Dane terminowe dla wybranej stacji. Kliknij datę, aby otrzymać dane z tego terminu dla wszystkich stacji.

TemperaturaZachmurzenieWiatrCiśnienieOpadyPogoda
 Data t td wb tx tn tg rh  Nt Nl Cl Cm Ch ws wd g1 g2 wx mslp ppp ch 24h 12h t ww ww w1 w2  
2019-07-20 23:00:00 17.0 12.6 14.1--- 75---4wx---1013.3 996.9 -0.6---------
2019-07-20 22:00:00 15.9 12.1 13.4--- 78---0----1013.9 997.4 0.2---------
2019-07-20 21:00:00 17.5 12.5 14.2--- 73---0----1013.7 997.3 0.4---------
2019-07-20 20:00:00 18.5 12.5 14.7--- 68---1----1013.8 997.4 0.4---------
2019-07-20 19:00:00 22.7 13.4 16.8--- 56---0----1013.2 997.1 0.0---------
2019-07-20 18:00:00 25.4 11.7 17.1 28.9 11.5- 42---2wx---1012.9 996.9 -0.6- 0.012------
2019-07-20 17:00:00 27.0 10.8 17.4--- 36---1----1012.9 997.0 -0.7---------
2019-07-20 16:00:00 28.0 9.9 17.3--- 32---2----1013.0 997.1 -0.8---------
2019-07-20 15:00:00 28.0 10.4 17.6--- 33---0----1013.4 997.5 -0.7---------
2019-07-20 14:00:00 28.1 10.2 17.5--- 33---2----1013.6 997.7 -0.7---------
2019-07-20 13:00:00 28.3 10.2 17.6--- 32---2----1013.8 998.0 -0.5---------
2019-07-20 12:00:00 27.4 12.1 18.1--- 39---2----1014.1 998.2 -0.4- 0.06------
2019-07-20 11:00:00 27.4 11.6 17.9--- 37---1----1014.3 998.4 -0.2---------
2019-07-20 10:00:00 26.6 11.1 17.3--- 38---2----1014.4 998.5 0.2---------
2019-07-20 09:00:00 25.0 11.5 16.9--- 43---1----1014.7 998.6 0.0---------
2019-07-20 08:00:00 23.4 12.2 16.5--- 49---1----1014.7 998.5 0.4---------
2019-07-20 07:00:00 21.0 14.0 16.5--- 64---2----1014.6 998.3 0.3---------
2019-07-20 06:00:00 18.5 13.5 15.2 26.9 11.5 10 73---1----1014.9 998.5 0.9 0.0 0.012----- 0.0
2019-07-20 05:00:00 16.1 14.4 14.9--- 90---0----1014.6 998.1 0.6---------
2019-07-20 04:00:00 13.7 12.9 13.1--- 95---1----1014.7 998.0 0.6---------
2019-07-20 03:00:00 12.0 11.1 11.3--- 94---1wx---1014.4 997.6 0.2---------
2019-07-20 02:00:00 12.4 11.1 11.5--- 92---1wx---1014.2 997.5 0.2---------
2019-07-20 01:00:00 13.3 12.0 12.4--- 92---1wx---1014.1 997.4 0.3---------
2019-07-20 00:00:00 13.2 11.5 12.0--- 89---1----1014.1 997.4 0.4- 0.06------
2019-07-19 23:00:00 14.1 11.2 12.2--- 83---0----1013.9 997.3 0.6---------
2019-07-19 22:00:00 15.6 12.1 13.3--- 80---1----1013.6 997.1 0.9---------
2019-07-19 21:00:00 16.4 12.0 13.5--- 75---1wx---1013.5 997.0 1.2---------
2019-07-19 20:00:00 17.9 11.2 13.7--- 65---1----1013.1 996.7 1.0---------
2019-07-19 19:00:00 21.8 11.1 15.3--- 51---1----1012.4 996.2 0.7---------
2019-07-19 18:00:00 23.2 11.6 16.2 26.9 8.5- 48---1----1011.9 995.8 0.3- 0.012------
2019-07-19 17:00:00 24.5 12.0 16.9--- 46---1----1011.7 995.7 0.0---------
2019-07-19 16:00:00 25.2 10.6 16.5--- 40---2----1011.5 995.5 -0.4---------
2019-07-19 15:00:00 25.5 9.7 16.3--- 37---2----1011.5 995.5 -0.8---------
2019-07-19 14:00:00 26.7 7.5 15.8--- 30---2----1011.6 995.7 -0.6---------
2019-07-19 13:00:00 26.3 7.2 15.5--- 30---2----1011.8 995.9 -0.5---------
2019-07-19 12:00:00 24.9 7.1 14.9--- 32---2----1012.3 996.3 -0.3- 0.06------
2019-07-19 11:00:00 24.0 8.1 14.9--- 36---1----1012.4 996.3 0.0---------
2019-07-19 10:00:00 23.8 8.6 15.1--- 38---1----1012.4 996.4 0.0---------
2019-07-19 09:00:00 23.4 5.4 13.6--- 31---1----1012.6 996.5 0.0---------
2019-07-19 08:00:00 22.4 11.2 15.6--- 49---1----1012.5 996.4 0.0---------
2019-07-19 07:00:00 19.5 12.4 15.0--- 64---1----1012.6 996.3 0.0---------
2019-07-19 06:00:00 16.6 11.7 13.4 24.1 8.5 7 73---1----1012.9 996.4 0.0 0.0 0.012----- 0.0
2019-07-19 05:00:00 14.1 12.0 12.6--- 87---1----1012.9 996.3 -0.3---------
2019-07-19 04:00:00 10.5 9.7 9.9--- 95---1----1013.1 996.3 -0.5---------
2019-07-19 03:00:00 8.6 7.7 7.9--- 94---0----1013.3 996.4 -0.5---------
2019-07-19 02:00:00 9.6 8.4 8.7--- 92---0----1013.5 996.6 -0.4---------
2019-07-19 01:00:00 11.2 9.4 10.0--- 89---1----1013.6 996.8 -0.2---------
2019-07-19 00:00:00 13.0 10.7 11.4--- 86---3wx---1013.7 997.0 0.0- 0.06------
1.1 ms

 

Print Friendly, PDF & Email